sensor_id;sensor_type;location;lat;lon;timestamp;pressure;altitude;pressure_sealevel;temperature;humidity
59194;BME280;44967;48.598;15.650;2023-03-25T00:00:58;97449.38;;;11.81;66.36
59194;BME280;44967;48.598;15.650;2023-03-25T00:03:26;97436.72;;;11.69;66.91
59194;BME280;44967;48.598;15.650;2023-03-25T00:05:53;97433.72;;;11.76;66.26
59194;BME280;44967;48.598;15.650;2023-03-25T00:08:19;97426.00;;;11.72;66.84
59194;BME280;44967;48.598;15.650;2023-03-25T00:10:44;97443.16;;;11.63;66.85
59194;BME280;44967;48.598;15.650;2023-03-25T00:13:10;97409.28;;;11.70;66.67
59194;BME280;44967;48.598;15.650;2023-03-25T00:15:44;97417.97;;;11.73;66.11
59194;BME280;44967;48.598;15.650;2023-03-25T00:18:13;97423.19;;;11.75;65.92
59194;BME280;44967;48.598;15.650;2023-03-25T00:20:39;97414.41;;;11.74;66.33
59194;BME280;44967;48.598;15.650;2023-03-25T00:23:06;97409.50;;;11.65;67.00
59194;BME280;44967;48.598;15.650;2023-03-25T00:25:32;97415.81;;;11.63;67.09
59194;BME280;44967;48.598;15.650;2023-03-25T00:27:59;97421.06;;;11.64;67.09
59194;BME280;44967;48.598;15.650;2023-03-25T00:30:25;97434.19;;;11.66;66.64
59194;BME280;44967;48.598;15.650;2023-03-25T00:32:51;97438.22;;;11.74;66.22
59194;BME280;44967;48.598;15.650;2023-03-25T00:35:22;97445.75;;;11.65;66.71
59194;BME280;44967;48.598;15.650;2023-03-25T00:37:51;97433.09;;;11.71;66.45
59194;BME280;44967;48.598;15.650;2023-03-25T00:40:29;97428.44;;;11.76;66.21
59194;BME280;44967;48.598;15.650;2023-03-25T00:42:59;97430.69;;;11.65;66.69
59194;BME280;44967;48.598;15.650;2023-03-25T00:45:25;97427.28;;;11.63;66.79
59194;BME280;44967;48.598;15.650;2023-03-25T00:47:51;97429.16;;;11.61;66.88
59194;BME280;44967;48.598;15.650;2023-03-25T00:50:16;97422.19;;;11.59;65.98
59194;BME280;44967;48.598;15.650;2023-03-25T00:52:42;97416.53;;;11.66;66.29
59194;BME280;44967;48.598;15.650;2023-03-25T00:55:08;97412.09;;;11.67;66.35
59194;BME280;44967;48.598;15.650;2023-03-25T00:57:34;97423.59;;;11.66;65.66
59194;BME280;44967;48.598;15.650;2023-03-25T01:00:01;97423.13;;;11.58;65.82
59194;BME280;44967;48.598;15.650;2023-03-25T01:02:28;97430.28;;;11.56;65.57
59194;BME280;44967;48.598;15.650;2023-03-25T01:04:55;97411.94;;;11.70;65.05
59194;BME280;44967;48.598;15.650;2023-03-25T01:07:21;97422.69;;;11.67;64.42
59194;BME280;44967;48.598;15.650;2023-03-25T01:09:47;97420.34;;;11.61;65.03
59194;BME280;44967;48.598;15.650;2023-03-25T01:12:14;97425.16;;;11.53;64.99
59194;BME280;44967;48.598;15.650;2023-03-25T01:14:41;97439.31;;;11.52;65.49
59194;BME280;44967;48.598;15.650;2023-03-25T01:17:07;97443.31;;;11.60;64.96
59194;BME280;44967;48.598;15.650;2023-03-25T01:19:32;97444.28;;;11.58;65.43
59194;BME280;44967;48.598;15.650;2023-03-25T01:21:58;97442.09;;;11.49;65.90
59194;BME280;44967;48.598;15.650;2023-03-25T01:24:24;97444.59;;;11.52;66.25
59194;BME280;44967;48.598;15.650;2023-03-25T01:26:50;97440.31;;;11.49;66.24
59194;BME280;44967;48.598;15.650;2023-03-25T01:29:18;97444.97;;;11.44;65.82
59194;BME280;44967;48.598;15.650;2023-03-25T01:31:44;97432.59;;;11.45;66.35
59194;BME280;44967;48.598;15.650;2023-03-25T01:34:11;97443.19;;;11.45;65.95
59194;BME280;44967;48.598;15.650;2023-03-25T01:36:37;97429.31;;;11.40;66.02
59194;BME280;44967;48.598;15.650;2023-03-25T01:39:12;97434.00;;;11.52;65.61
59194;BME280;44967;48.598;15.650;2023-03-25T01:41:42;97439.59;;;11.46;65.91
59194;BME280;44967;48.598;15.650;2023-03-25T01:46:37;97442.38;;;11.43;65.98
59194;BME280;44967;48.598;15.650;2023-03-25T01:49:06;97439.72;;;11.43;66.18
59194;BME280;44967;48.598;15.650;2023-03-25T01:51:36;97435.63;;;11.37;66.05
59194;BME280;44967;48.598;15.650;2023-03-25T01:54:04;97426.00;;;11.34;65.47
59194;BME280;44967;48.598;15.650;2023-03-25T01:56:32;97426.47;;;11.25;65.70
59194;BME280;44967;48.598;15.650;2023-03-25T01:59:02;97429.88;;;11.27;65.45
59194;BME280;44967;48.598;15.650;2023-03-25T02:01:30;97421.19;;;11.25;65.22
59194;BME280;44967;48.598;15.650;2023-03-25T02:03:56;97423.81;;;11.25;65.49
59194;BME280;44967;48.598;15.650;2023-03-25T02:06:44;97417.72;;;11.23;64.82
59194;BME280;44967;48.598;15.650;2023-03-25T02:09:14;97416.22;;;11.37;64.61
59194;BME280;44967;48.598;15.650;2023-03-25T02:11:41;97425.66;;;11.23;64.42
59194;BME280;44967;48.598;15.650;2023-03-25T02:14:09;97428.47;;;11.20;64.41
59194;BME280;44967;48.598;15.650;2023-03-25T02:25:16;97412.22;;;11.28;63.37
59194;BME280;44967;48.598;15.650;2023-03-25T02:27:53;97406.09;;;11.09;63.79
59194;BME280;44967;48.598;15.650;2023-03-25T02:41:45;97428.72;;;11.14;63.45
59194;BME280;44967;48.598;15.650;2023-03-25T02:44:40;97432.13;;;11.18;63.21
59194;BME280;44967;48.598;15.650;2023-03-25T02:47:08;97423.75;;;11.08;63.49
59194;BME280;44967;48.598;15.650;2023-03-25T02:49:41;97422.81;;;11.09;63.11
59194;BME280;44967;48.598;15.650;2023-03-25T02:52:27;97431.53;;;11.11;63.32
59194;BME280;44967;48.598;15.650;2023-03-25T02:54:57;97421.31;;;11.04;64.36
59194;BME280;44967;48.598;15.650;2023-03-25T02:57:27;97424.88;;;11.03;63.89
59194;BME280;44967;48.598;15.650;2023-03-25T02:59:54;97419.69;;;11.01;63.89
59194;BME280;44967;48.598;15.650;2023-03-25T03:02:24;97417.94;;;11.00;63.79
59194;BME280;44967;48.598;15.650;2023-03-25T03:04:55;97422.31;;;11.01;63.95
59194;BME280;44967;48.598;15.650;2023-03-25T03:07:24;97410.44;;;10.91;64.87
59194;BME280;44967;48.598;15.650;2023-03-25T03:17:46;97431.94;;;10.83;64.80
59194;BME280;44967;48.598;15.650;2023-03-25T03:20:27;97443.50;;;10.81;65.14
59194;BME280;44967;48.598;15.650;2023-03-25T03:26:05;97458.84;;;10.73;65.31
59194;BME280;44967;48.598;15.650;2023-03-25T03:29:06;97450.25;;;10.68;65.63
59194;BME280;44967;48.598;15.650;2023-03-25T03:31:41;97459.25;;;10.64;66.04
59194;BME280;44967;48.598;15.650;2023-03-25T03:34:16;97456.72;;;10.81;65.45
59194;BME280;44967;48.598;15.650;2023-03-25T03:36:45;97455.63;;;10.66;66.47
59194;BME280;44967;48.598;15.650;2023-03-25T03:39:20;97448.13;;;10.76;65.39
59194;BME280;44967;48.598;15.650;2023-03-25T03:41:52;97445.84;;;10.68;65.70
59194;BME280;44967;48.598;15.650;2023-03-25T03:44:21;97440.84;;;10.62;66.08
59194;BME280;44967;48.598;15.650;2023-03-25T03:47:04;97444.66;;;10.55;66.19
59194;BME280;44967;48.598;15.650;2023-03-25T03:49:36;97445.13;;;10.65;65.48
59194;BME280;44967;48.598;15.650;2023-03-25T03:52:11;97445.47;;;10.57;66.20
59194;BME280;44967;48.598;15.650;2023-03-25T03:54:44;97454.78;;;10.66;65.23
59194;BME280;44967;48.598;15.650;2023-03-25T03:57:17;97456.28;;;10.51;66.16
59194;BME280;44967;48.598;15.650;2023-03-25T04:04:50;97447.56;;;10.69;64.98
59194;BME280;44967;48.598;15.650;2023-03-25T04:07:21;97458.47;;;10.62;64.65
59194;BME280;44967;48.598;15.650;2023-03-25T04:12:25;97467.84;;;10.49;64.90
59194;BME280;44967;48.598;15.650;2023-03-25T04:14:55;97469.97;;;10.61;64.60
59194;BME280;44967;48.598;15.650;2023-03-25T04:17:24;97475.09;;;10.44;65.37
59194;BME280;44967;48.598;15.650;2023-03-25T04:19:50;97483.75;;;10.47;64.74
59194;BME280;44967;48.598;15.650;2023-03-25T04:22:18;97472.25;;;10.48;64.62
59194;BME280;44967;48.598;15.650;2023-03-25T04:24:46;97480.53;;;10.40;64.86
59194;BME280;44967;48.598;15.650;2023-03-25T04:27:17;97484.94;;;10.40;64.82
59194;BME280;44967;48.598;15.650;2023-03-25T04:29:44;97487.91;;;10.32;65.77
59194;BME280;44967;48.598;15.650;2023-03-25T04:32:12;97488.09;;;10.28;65.65
59194;BME280;44967;48.598;15.650;2023-03-25T04:34:38;97494.53;;;10.43;64.65
59194;BME280;44967;48.598;15.650;2023-03-25T04:37:04;97487.84;;;10.34;65.02
59194;BME280;44967;48.598;15.650;2023-03-25T04:39:31;97498.59;;;10.29;65.31
59194;BME280;44967;48.598;15.650;2023-03-25T04:41:58;97497.69;;;10.30;65.46
59194;BME280;44967;48.598;15.650;2023-03-25T04:44:29;97493.38;;;10.28;65.69
59194;BME280;44967;48.598;15.650;2023-03-25T04:46:59;97492.59;;;10.26;65.72
59194;BME280;44967;48.598;15.650;2023-03-25T04:49:27;97486.41;;;10.27;65.28
59194;BME280;44967;48.598;15.650;2023-03-25T04:51:53;97485.97;;;10.16;66.42
59194;BME280;44967;48.598;15.650;2023-03-25T04:54:20;97487.50;;;10.00;66.91
59194;BME280;44967;48.598;15.650;2023-03-25T04:56:49;97489.72;;;9.88;68.06
59194;BME280;44967;48.598;15.650;2023-03-25T04:59:17;97494.53;;;9.79;67.99
59194;BME280;44967;48.598;15.650;2023-03-25T05:01:44;97501.03;;;9.70;68.14
59194;BME280;44967;48.598;15.650;2023-03-25T05:04:11;97500.63;;;9.58;68.50
59194;BME280;44967;48.598;15.650;2023-03-25T05:06:40;97509.59;;;9.54;69.10
59194;BME280;44967;48.598;15.650;2023-03-25T05:09:12;97504.56;;;9.48;69.65
59194;BME280;44967;48.598;15.650;2023-03-25T05:11:38;97501.47;;;9.36;69.72
59194;BME280;44967;48.598;15.650;2023-03-25T05:14:07;97504.69;;;9.21;70.33
59194;BME280;44967;48.598;15.650;2023-03-25T05:16:33;97496.00;;;9.19;69.98
59194;BME280;44967;48.598;15.650;2023-03-25T05:18:59;97506.25;;;9.27;70.83
59194;BME280;44967;48.598;15.650;2023-03-25T05:21:24;97503.34;;;9.33;69.78
59194;BME280;44967;48.598;15.650;2023-03-25T05:23:50;97518.38;;;9.31;69.92
59194;BME280;44967;48.598;15.650;2023-03-25T05:26:17;97516.16;;;9.20;70.72
59194;BME280;44967;48.598;15.650;2023-03-25T05:28:42;97506.69;;;9.15;70.34
59194;BME280;44967;48.598;15.650;2023-03-25T05:31:08;97502.88;;;9.45;68.01
59194;BME280;44967;48.598;15.650;2023-03-25T05:33:35;97512.06;;;9.58;68.06
59194;BME280;44967;48.598;15.650;2023-03-25T05:36:17;97521.69;;;9.59;68.46
59194;BME280;44967;48.598;15.650;2023-03-25T05:38:42;97532.47;;;9.53;68.47
59194;BME280;44967;48.598;15.650;2023-03-25T05:41:12;97529.69;;;9.56;67.21
59194;BME280;44967;48.598;15.650;2023-03-25T05:43:42;97523.22;;;9.65;67.46
59194;BME280;44967;48.598;15.650;2023-03-25T05:46:16;97522.59;;;9.80;66.30
59194;BME280;44967;48.598;15.650;2023-03-25T05:48:42;97537.41;;;9.84;66.47
59194;BME280;44967;48.598;15.650;2023-03-25T05:51:14;97523.38;;;9.83;66.77
59194;BME280;44967;48.598;15.650;2023-03-25T05:53:44;97528.44;;;9.88;65.83
59194;BME280;44967;48.598;15.650;2023-03-25T05:56:21;97537.94;;;9.92;65.31
59194;BME280;44967;48.598;15.650;2023-03-25T05:58:49;97540.91;;;10.06;65.73
59194;BME280;44967;48.598;15.650;2023-03-25T06:01:16;97524.09;;;10.09;65.16
59194;BME280;44967;48.598;15.650;2023-03-25T06:03:43;97529.03;;;10.18;64.96
59194;BME280;44967;48.598;15.650;2023-03-25T06:06:10;97531.03;;;10.33;63.30
59194;BME280;44967;48.598;15.650;2023-03-25T06:08:50;97520.53;;;10.52;62.83
59194;BME280;44967;48.598;15.650;2023-03-25T06:11:17;97518.75;;;10.52;63.51
59194;BME280;44967;48.598;15.650;2023-03-25T06:13:44;97521.22;;;10.57;63.56
59194;BME280;44967;48.598;15.650;2023-03-25T06:16:17;97547.09;;;10.69;62.32
59194;BME280;44967;48.598;15.650;2023-03-25T06:18:47;97543.41;;;10.73;61.59
59194;BME280;44967;48.598;15.650;2023-03-25T06:21:24;97549.59;;;10.72;61.83
59194;BME280;44967;48.598;15.650;2023-03-25T06:23:51;97540.72;;;10.74;62.10
59194;BME280;44967;48.598;15.650;2023-03-25T06:26:19;97545.91;;;10.76;61.60
59194;BME280;44967;48.598;15.650;2023-03-25T06:28:45;97543.06;;;10.80;61.23
59194;BME280;44967;48.598;15.650;2023-03-25T06:31:18;97534.44;;;10.77;61.28
59194;BME280;44967;48.598;15.650;2023-03-25T06:33:46;97534.16;;;10.83;61.21
59194;BME280;44967;48.598;15.650;2023-03-25T06:36:15;97539.63;;;10.78;60.86
59194;BME280;44967;48.598;15.650;2023-03-25T06:38:44;97539.56;;;10.80;61.75
59194;BME280;44967;48.598;15.650;2023-03-25T06:41:11;97547.34;;;10.83;61.51
59194;BME280;44967;48.598;15.650;2023-03-25T06:43:38;97558.59;;;10.88;61.15
59194;BME280;44967;48.598;15.650;2023-03-25T06:46:06;97571.03;;;10.86;60.65
59194;BME280;44967;48.598;15.650;2023-03-25T06:48:31;97568.91;;;10.94;60.08
59194;BME280;44967;48.598;15.650;2023-03-25T06:50:57;97570.75;;;10.92;60.13
59194;BME280;44967;48.598;15.650;2023-03-25T06:53:23;97569.69;;;10.96;60.26
59194;BME280;44967;48.598;15.650;2023-03-25T06:55:49;97561.22;;;11.08;60.05
59194;BME280;44967;48.598;15.650;2023-03-25T06:58:15;97577.03;;;11.10;59.06
59194;BME280;44967;48.598;15.650;2023-03-25T07:00:41;97579.75;;;11.08;60.88
59194;BME280;44967;48.598;15.650;2023-03-25T07:03:08;97566.84;;;11.01;59.76
59194;BME280;44967;48.598;15.650;2023-03-25T07:05:34;97567.03;;;11.16;60.08
59194;BME280;44967;48.598;15.650;2023-03-25T07:07:59;97563.19;;;11.23;59.67
59194;BME280;44967;48.598;15.650;2023-03-25T07:10:25;97560.34;;;11.47;59.18
59194;BME280;44967;48.598;15.650;2023-03-25T07:12:51;97547.50;;;11.58;57.95
59194;BME280;44967;48.598;15.650;2023-03-25T07:15:16;97554.88;;;11.51;59.17
59194;BME280;44967;48.598;15.650;2023-03-25T07:17:42;97543.88;;;11.60;58.64
59194;BME280;44967;48.598;15.650;2023-03-25T07:20:09;97558.13;;;11.76;58.52
59194;BME280;44967;48.598;15.650;2023-03-25T07:22:35;97550.00;;;11.61;57.86
59194;BME280;44967;48.598;15.650;2023-03-25T07:25:01;97554.16;;;11.66;58.92
59194;BME280;44967;48.598;15.650;2023-03-25T07:27:29;97542.28;;;11.56;57.60
59194;BME280;44967;48.598;15.650;2023-03-25T07:29:55;97544.28;;;11.51;57.25
59194;BME280;44967;48.598;15.650;2023-03-25T07:32:20;97550.44;;;11.70;58.35
59194;BME280;44967;48.598;15.650;2023-03-25T07:34:46;97542.16;;;11.78;57.11
59194;BME280;44967;48.598;15.650;2023-03-25T07:37:12;97545.28;;;11.67;57.18
59194;BME280;44967;48.598;15.650;2023-03-25T07:39:38;97554.47;;;11.79;57.14
59194;BME280;44967;48.598;15.650;2023-03-25T07:42:04;97549.19;;;11.79;56.61
59194;BME280;44967;48.598;15.650;2023-03-25T07:44:31;97548.63;;;11.72;57.64
59194;BME280;44967;48.598;15.650;2023-03-25T07:46:56;97567.91;;;11.74;56.48
59194;BME280;44967;48.598;15.650;2023-03-25T07:49:22;97552.97;;;11.92;56.45
59194;BME280;44967;48.598;15.650;2023-03-25T07:51:47;97557.47;;;11.90;54.57
59194;BME280;44967;48.598;15.650;2023-03-25T07:54:13;97555.34;;;11.79;54.81
59194;BME280;44967;48.598;15.650;2023-03-25T07:56:39;97558.38;;;11.89;54.68
59194;BME280;44967;48.598;15.650;2023-03-25T07:59:05;97566.47;;;11.86;55.34
59194;BME280;44967;48.598;15.650;2023-03-25T08:01:31;97561.25;;;12.03;54.42
59194;BME280;44967;48.598;15.650;2023-03-25T08:03:56;97556.03;;;12.02;52.00
59194;BME280;44967;48.598;15.650;2023-03-25T08:06:22;97552.59;;;12.00;51.54
59194;BME280;44967;48.598;15.650;2023-03-25T08:08:48;97558.44;;;12.06;51.97
59194;BME280;44967;48.598;15.650;2023-03-25T08:11:13;97555.75;;;12.08;52.55
59194;BME280;44967;48.598;15.650;2023-03-25T08:13:40;97559.38;;;12.24;51.69
59194;BME280;44967;48.598;15.650;2023-03-25T08:16:12;97564.66;;;12.41;51.42
59194;BME280;44967;48.598;15.650;2023-03-25T08:18:39;97561.81;;;12.63;51.65
59194;BME280;44967;48.598;15.650;2023-03-25T08:21:12;97557.69;;;12.57;50.42
59194;BME280;44967;48.598;15.650;2023-03-25T08:23:38;97560.44;;;12.56;51.33
59194;BME280;44967;48.598;15.650;2023-03-25T08:26:04;97569.06;;;12.76;51.77
59194;BME280;44967;48.598;15.650;2023-03-25T08:28:30;97573.06;;;12.85;51.95
59194;BME280;44967;48.598;15.650;2023-03-25T08:30:56;97564.31;;;12.83;52.38
59194;BME280;44967;48.598;15.650;2023-03-25T08:33:24;97561.59;;;12.67;50.90
59194;BME280;44967;48.598;15.650;2023-03-25T08:35:59;97574.75;;;12.69;52.42
59194;BME280;44967;48.598;15.650;2023-03-25T08:38:27;97585.03;;;12.58;50.25
59194;BME280;44967;48.598;15.650;2023-03-25T08:40:58;97578.66;;;12.62;50.54
59194;BME280;44967;48.598;15.650;2023-03-25T08:43:25;97559.56;;;12.55;49.69
59194;BME280;44967;48.598;15.650;2023-03-25T08:45:51;97580.84;;;12.54;51.24
59194;BME280;44967;48.598;15.650;2023-03-25T08:48:16;97573.88;;;12.34;49.75
59194;BME280;44967;48.598;15.650;2023-03-25T08:50:42;97575.06;;;12.46;50.81
59194;BME280;44967;48.598;15.650;2023-03-25T08:53:08;97575.69;;;12.51;52.39
59194;BME280;44967;48.598;15.650;2023-03-25T08:55:35;97588.50;;;12.60;52.62
59194;BME280;44967;48.598;15.650;2023-03-25T08:58:04;97584.25;;;12.39;51.01
59194;BME280;44967;48.598;15.650;2023-03-25T09:00:30;97581.69;;;12.54;52.63
59194;BME280;44967;48.598;15.650;2023-03-25T09:02:57;97585.88;;;12.41;51.95
59194;BME280;44967;48.598;15.650;2023-03-25T09:05:24;97578.34;;;12.15;51.23
59194;BME280;44967;48.598;15.650;2023-03-25T09:07:50;97579.47;;;12.28;51.37
59194;BME280;44967;48.598;15.650;2023-03-25T09:10:15;97590.31;;;12.41;51.89
59194;BME280;44967;48.598;15.650;2023-03-25T09:12:41;97590.31;;;12.41;52.09
59194;BME280;44967;48.598;15.650;2023-03-25T09:15:08;97589.50;;;12.74;51.59
59194;BME280;44967;48.598;15.650;2023-03-25T09:17:33;97582.47;;;12.73;51.82
59194;BME280;44967;48.598;15.650;2023-03-25T09:19:59;97593.44;;;12.49;52.81
59194;BME280;44967;48.598;15.650;2023-03-25T09:22:25;97586.81;;;12.40;52.81
59194;BME280;44967;48.598;15.650;2023-03-25T09:24:50;97589.06;;;12.31;53.84
59194;BME280;44967;48.598;15.650;2023-03-25T09:27:16;97592.09;;;12.04;54.98
59194;BME280;44967;48.598;15.650;2023-03-25T09:29:42;97614.28;;;12.20;55.53
59194;BME280;44967;48.598;15.650;2023-03-25T09:32:07;97613.50;;;12.00;55.04
59194;BME280;44967;48.598;15.650;2023-03-25T09:34:33;97596.09;;;11.94;55.44
59194;BME280;44967;48.598;15.650;2023-03-25T09:36:59;97604.13;;;12.11;54.34
59194;BME280;44967;48.598;15.650;2023-03-25T09:39:27;97597.25;;;12.07;55.44
59194;BME280;44967;48.598;15.650;2023-03-25T09:42:06;97602.19;;;12.15;54.69
59194;BME280;44967;48.598;15.650;2023-03-25T09:44:50;97594.34;;;12.31;54.92
59194;BME280;44967;48.598;15.650;2023-03-25T09:47:19;97598.41;;;12.38;53.80
59194;BME280;44967;48.598;15.650;2023-03-25T09:49:49;97575.38;;;12.40;53.61
59194;BME280;44967;48.598;15.650;2023-03-25T09:52:27;97589.56;;;12.56;52.58
59194;BME280;44967;48.598;15.650;2023-03-25T09:55:05;97590.63;;;12.88;52.09
59194;BME280;44967;48.598;15.650;2023-03-25T09:57:39;97587.09;;;12.87;51.93
59194;BME280;44967;48.598;15.650;2023-03-25T10:00:16;97578.75;;;12.77;50.73
59194;BME280;44967;48.598;15.650;2023-03-25T10:02:59;97581.63;;;12.90;50.34
59194;BME280;44967;48.598;15.650;2023-03-25T10:05:47;97577.94;;;13.11;49.95
59194;BME280;44967;48.598;15.650;2023-03-25T10:11:24;97582.78;;;13.02;49.03
59194;BME280;44967;48.598;15.650;2023-03-25T10:14:00;97583.09;;;12.96;49.74
59194;BME280;44967;48.598;15.650;2023-03-25T10:19:36;97567.91;;;12.99;48.06
59194;BME280;44967;48.598;15.650;2023-03-25T10:22:31;97562.97;;;13.09;48.58
59194;BME280;44967;48.598;15.650;2023-03-25T10:25:04;97565.41;;;13.13;48.76
59194;BME280;44967;48.598;15.650;2023-03-25T10:28:08;97550.09;;;13.51;47.86
59194;BME280;44967;48.598;15.650;2023-03-25T10:30:37;97547.59;;;13.97;47.07
59194;BME280;44967;48.598;15.650;2023-03-25T10:33:35;97539.00;;;14.39;45.01
59194;BME280;44967;48.598;15.650;2023-03-25T10:36:00;97526.13;;;15.77;43.30
59194;BME280;44967;48.598;15.650;2023-03-25T10:38:29;97524.69;;;16.27;40.56
59194;BME280;44967;48.598;15.650;2023-03-25T10:43:44;97517.66;;;18.17;38.44
59194;BME280;44967;48.598;15.650;2023-03-25T10:48:38;97500.66;;;17.81;34.94
59194;BME280;44967;48.598;15.650;2023-03-25T10:51:12;97491.44;;;18.33;34.09
59194;BME280;44967;48.598;15.650;2023-03-25T10:53:40;97499.09;;;18.50;35.04
59194;BME280;44967;48.598;15.650;2023-03-25T10:58:38;97480.41;;;18.37;31.57
59194;BME280;44967;48.598;15.650;2023-03-25T11:01:16;97487.03;;;18.21;32.54
59194;BME280;44967;48.598;15.650;2023-03-25T11:03:45;97483.00;;;18.15;33.33
59194;BME280;44967;48.598;15.650;2023-03-25T11:06:33;97507.59;;;18.44;31.43
59194;BME280;44967;48.598;15.650;2023-03-25T11:11:34;97473.72;;;16.04;32.01
59194;BME280;44967;48.598;15.650;2023-03-25T11:14:01;97488.50;;;14.69;33.78
59194;BME280;44967;48.598;15.650;2023-03-25T11:16:58;97507.13;;;14.07;35.33
59194;BME280;44967;48.598;15.650;2023-03-25T11:22:27;97515.63;;;14.14;35.94
59194;BME280;44967;48.598;15.650;2023-03-25T11:25:03;97515.88;;;14.41;36.10
59194;BME280;44967;48.598;15.650;2023-03-25T11:27:39;97512.81;;;14.01;36.09
59194;BME280;44967;48.598;15.650;2023-03-25T11:30:16;97509.06;;;14.81;35.68
59194;BME280;44967;48.598;15.650;2023-03-25T11:32:42;97503.63;;;14.82;35.17
59194;BME280;44967;48.598;15.650;2023-03-25T11:35:21;97506.03;;;15.29;35.97
59194;BME280;44967;48.598;15.650;2023-03-25T11:37:56;97506.56;;;16.05;34.41
59194;BME280;44967;48.598;15.650;2023-03-25T11:40:23;97488.31;;;16.26;32.23
59194;BME280;44967;48.598;15.650;2023-03-25T11:42:53;97504.53;;;15.82;33.31
59194;BME280;44967;48.598;15.650;2023-03-25T11:45:21;97494.03;;;16.20;33.10
59194;BME280;44967;48.598;15.650;2023-03-25T11:47:48;97488.91;;;16.17;31.60
59194;BME280;44967;48.598;15.650;2023-03-25T11:50:22;97493.03;;;15.67;33.89
59194;BME280;44967;48.598;15.650;2023-03-25T11:52:53;97476.84;;;15.42;33.63
59194;BME280;44967;48.598;15.650;2023-03-25T11:55:31;97486.75;;;15.12;35.10
59194;BME280;44967;48.598;15.650;2023-03-25T11:58:00;97490.66;;;14.62;34.32
59194;BME280;44967;48.598;15.650;2023-03-25T12:00:31;97489.97;;;14.58;35.82
59194;BME280;44967;48.598;15.650;2023-03-25T12:03:18;97500.22;;;14.50;36.38
59194;BME280;44967;48.598;15.650;2023-03-25T12:06:03;97501.44;;;14.29;38.18
59194;BME280;44967;48.598;15.650;2023-03-25T12:08:42;97496.84;;;14.17;37.29
59194;BME280;44967;48.598;15.650;2023-03-25T12:11:19;97483.31;;;14.06;37.67
59194;BME280;44967;48.598;15.650;2023-03-25T12:13:55;97497.09;;;14.12;38.84
59194;BME280;44967;48.598;15.650;2023-03-25T12:16:51;97489.72;;;14.18;37.83
59194;BME280;44967;48.598;15.650;2023-03-25T12:25:06;97471.03;;;14.19;37.70
59194;BME280;44967;48.598;15.650;2023-03-25T12:27:49;97478.94;;;14.05;38.90
59194;BME280;44967;48.598;15.650;2023-03-25T12:35:48;97469.34;;;14.18;39.12
59194;BME280;44967;48.598;15.650;2023-03-25T12:38:48;97459.66;;;14.17;38.07
59194;BME280;44967;48.598;15.650;2023-03-25T12:41:33;97464.81;;;14.04;39.57
59194;BME280;44967;48.598;15.650;2023-03-25T12:44:02;97460.00;;;13.95;39.44
59194;BME280;44967;48.598;15.650;2023-03-25T13:00:18;97511.59;;;12.25;60.58
59194;BME280;44967;48.598;15.650;2023-03-25T13:05:59;97489.25;;;12.31;60.10
59194;BME280;44967;48.598;15.650;2023-03-25T13:11:04;97459.09;;;12.51;62.08
59194;BME280;44967;48.598;15.650;2023-03-25T13:13:33;97460.31;;;12.61;60.51
59194;BME280;44967;48.598;15.650;2023-03-25T13:16:06;97461.41;;;12.57;57.08
59194;BME280;44967;48.598;15.650;2023-03-25T13:19:16;97457.66;;;12.78;57.20
59194;BME280;44967;48.598;15.650;2023-03-25T13:21:48;97447.59;;;13.00;53.76
59194;BME280;44967;48.598;15.650;2023-03-25T13:24:22;97434.50;;;13.14;54.48
59194;BME280;44967;48.598;15.650;2023-03-25T13:26:51;97444.97;;;13.49;56.13
59194;BME280;44967;48.598;15.650;2023-03-25T13:31:49;97441.84;;;13.88;54.52
59194;BME280;44967;48.598;15.650;2023-03-25T13:37:20;97432.84;;;14.06;50.24
59194;BME280;44967;48.598;15.650;2023-03-25T13:45:50;97425.06;;;13.87;44.88
59194;BME280;44967;48.598;15.650;2023-03-25T13:48:30;97409.13;;;13.87;45.06
59194;BME280;44967;48.598;15.650;2023-03-25T13:51:02;97416.69;;;13.79;44.95
59194;BME280;44967;48.598;15.650;2023-03-25T13:53:35;97417.72;;;13.77;45.01
59194;BME280;44967;48.598;15.650;2023-03-25T13:58:41;97421.75;;;13.52;45.90
59194;BME280;44967;48.598;15.650;2023-03-25T14:01:29;97421.00;;;13.66;45.07
59194;BME280;44967;48.598;15.650;2023-03-25T14:12:28;97410.91;;;13.87;43.84
59194;BME280;44967;48.598;15.650;2023-03-25T14:15:03;97415.78;;;14.10;42.12
59194;BME280;44967;48.598;15.650;2023-03-25T14:17:33;97406.72;;;13.98;40.79
59194;BME280;44967;48.598;15.650;2023-03-25T14:20:02;97416.16;;;13.88;42.97
59194;BME280;44967;48.598;15.650;2023-03-25T14:22:31;97414.63;;;13.84;42.63
59194;BME280;44967;48.598;15.650;2023-03-25T14:25:01;97408.22;;;13.73;42.25
59194;BME280;44967;48.598;15.650;2023-03-25T14:27:32;97406.47;;;13.87;40.56
59194;BME280;44967;48.598;15.650;2023-03-25T14:30:05;97410.06;;;14.02;40.99
59194;BME280;44967;48.598;15.650;2023-03-25T14:32:36;97410.44;;;13.80;39.70
59194;BME280;44967;48.598;15.650;2023-03-25T14:40:51;97413.53;;;13.26;40.81
59194;BME280;44967;48.598;15.650;2023-03-25T14:43:26;97405.41;;;13.29;40.42
59194;BME280;44967;48.598;15.650;2023-03-25T14:49:09;97404.03;;;13.21;40.74
59194;BME280;44967;48.598;15.650;2023-03-25T14:54:29;97400.34;;;13.40;39.73
59194;BME280;44967;48.598;15.650;2023-03-25T14:57:05;97397.56;;;13.27;40.61
59194;BME280;44967;48.598;15.650;2023-03-25T14:59:59;97394.78;;;13.29;40.65
59194;BME280;44967;48.598;15.650;2023-03-25T15:02:29;97386.50;;;13.35;41.59
59194;BME280;44967;48.598;15.650;2023-03-25T15:04:59;97391.97;;;13.32;41.73
59194;BME280;44967;48.598;15.650;2023-03-25T15:07:45;97395.66;;;13.29;43.51
59194;BME280;44967;48.598;15.650;2023-03-25T15:12:49;97388.72;;;13.58;41.48
59194;BME280;44967;48.598;15.650;2023-03-25T15:15:29;97380.66;;;13.59;43.05